Freeman, West Virginia
Current Conditions -  °F | °C
As of 12:02 AM on Monday 22 Dec 2014 (Local Time) from KBLF Reporting Station
Scattered Clouds Scattered Clouds  
Wind Chill: 31°   Ceiling: Unl
Heat Index: 38°   Visibility: 10mi
Dew Point: 31°   Wind: 9mph
Humidity: 76%   Direction: 140°SE
Pressure: 30.11"   Gusts: NA
Location:  37.33°N, 81.31°W
Report Text: KBLF 220502Z AUTO 14008KT 10SM SCT013 03/M01 A3011 RMK AO2 T00331006
Loading
Personal Weather Stations






























Interactive Weather Map New forecast layout! Learn more

10-Day Weather Forecast

Advertisements
Track Severe Weather on mobile